sensor_id;sensor_type;location;lat;lon;timestamp;pressure;altitude;pressure_sealevel;temperature;humidity
60099;BME280;62818;49.394;8.686;2023-03-15T00:00:05;100113.13;;;4.41;100.00
60099;BME280;62818;49.394;8.686;2023-03-15T00:01:13;100114.63;;;4.54;100.00
60099;BME280;62818;49.394;8.686;2023-03-15T00:02:17;100123.00;;;4.20;100.00
60099;BME280;62818;49.394;8.686;2023-03-15T00:03:18;100123.16;;;4.09;100.00
60099;BME280;62818;49.394;8.686;2023-03-15T00:04:19;100122.03;;;4.02;100.00
60099;BME280;62818;49.394;8.686;2023-03-15T00:05:20;100129.78;;;3.94;100.00
60099;BME280;62818;49.394;8.686;2023-03-15T00:06:21;100130.91;;;3.92;100.00
60099;BME280;62818;49.394;8.686;2023-03-15T00:07:21;100123.72;;;3.84;100.00
60099;BME280;62818;49.394;8.686;2023-03-15T00:08:24;100133.63;;;3.90;100.00
60099;BME280;62818;49.394;8.686;2023-03-15T00:09:26;100136.13;;;4.01;100.00
60099;BME280;62818;49.394;8.686;2023-03-15T00:10:27;100130.28;;;4.26;100.00
60099;BME280;62818;49.394;8.686;2023-03-15T00:11:29;100136.34;;;4.36;100.00
60099;BME280;62818;49.394;8.686;2023-03-15T00:12:30;100137.88;;;4.29;100.00
60099;BME280;62818;49.394;8.686;2023-03-15T00:13:32;100142.31;;;4.10;100.00
60099;BME280;62818;49.394;8.686;2023-03-15T00:14:32;100140.50;;;4.29;100.00
60099;BME280;62818;49.394;8.686;2023-03-15T00:15:33;100142.56;;;4.26;100.00
60099;BME280;62818;49.394;8.686;2023-03-15T00:16:34;100144.41;;;4.06;100.00
60099;BME280;62818;49.394;8.686;2023-03-15T00:17:34;100138.88;;;4.00;100.00
60099;BME280;62818;49.394;8.686;2023-03-15T00:18:35;100147.84;;;4.07;100.00
60099;BME280;62818;49.394;8.686;2023-03-15T00:19:35;100147.59;;;4.00;100.00
60099;BME280;62818;49.394;8.686;2023-03-15T00:20:36;100150.22;;;4.00;100.00
60099;BME280;62818;49.394;8.686;2023-03-15T00:21:37;100148.16;;;3.85;100.00
60099;BME280;62818;49.394;8.686;2023-03-15T00:22:40;100140.00;;;3.68;100.00
60099;BME280;62818;49.394;8.686;2023-03-15T00:23:41;100144.81;;;3.73;100.00
60099;BME280;62818;49.394;8.686;2023-03-15T00:24:41;100150.22;;;3.71;100.00
60099;BME280;62818;49.394;8.686;2023-03-15T00:25:44;100148.00;;;3.86;100.00
60099;BME280;62818;49.394;8.686;2023-03-15T00:26:46;100145.13;;;3.70;100.00
60099;BME280;62818;49.394;8.686;2023-03-15T00:27:46;100158.88;;;4.10;100.00
60099;BME280;62818;49.394;8.686;2023-03-15T00:28:46;100157.63;;;4.14;100.00
60099;BME280;62818;49.394;8.686;2023-03-15T00:29:47;100160.66;;;4.19;100.00
60099;BME280;62818;49.394;8.686;2023-03-15T00:30:47;100158.16;;;4.37;100.00
60099;BME280;62818;49.394;8.686;2023-03-15T00:31:48;100166.59;;;4.21;100.00
60099;BME280;62818;49.394;8.686;2023-03-15T00:32:54;100174.22;;;4.05;100.00
60099;BME280;62818;49.394;8.686;2023-03-15T00:33:54;100164.25;;;4.37;100.00
60099;BME280;62818;49.394;8.686;2023-03-15T00:34:55;100170.09;;;4.03;100.00
60099;BME280;62818;49.394;8.686;2023-03-15T00:35:55;100174.75;;;3.80;100.00
60099;BME280;62818;49.394;8.686;2023-03-15T00:36:56;100174.22;;;3.86;100.00
60099;BME280;62818;49.394;8.686;2023-03-15T00:37:56;100167.59;;;3.63;100.00
60099;BME280;62818;49.394;8.686;2023-03-15T00:38:57;100173.25;;;3.87;100.00
60099;BME280;62818;49.394;8.686;2023-03-15T00:39:57;100176.16;;;3.84;100.00
60099;BME280;62818;49.394;8.686;2023-03-15T00:41:03;100174.91;;;3.98;100.00
60099;BME280;62818;49.394;8.686;2023-03-15T00:42:05;100179.47;;;3.96;100.00
60099;BME280;62818;49.394;8.686;2023-03-15T00:43:06;100176.69;;;3.78;100.00
60099;BME280;62818;49.394;8.686;2023-03-15T00:44:06;100174.34;;;3.56;100.00
60099;BME280;62818;49.394;8.686;2023-03-15T00:45:07;100172.25;;;3.50;100.00
60099;BME280;62818;49.394;8.686;2023-03-15T00:46:08;100172.41;;;3.77;100.00
60099;BME280;62818;49.394;8.686;2023-03-15T00:47:10;100183.03;;;3.75;100.00
60099;BME280;62818;49.394;8.686;2023-03-15T00:48:12;100173.38;;;3.76;100.00
60099;BME280;62818;49.394;8.686;2023-03-15T00:49:13;100174.59;;;3.43;100.00
60099;BME280;62818;49.394;8.686;2023-03-15T00:50:13;100178.16;;;3.42;100.00
60099;BME280;62818;49.394;8.686;2023-03-15T00:51:16;100182.88;;;3.58;100.00
60099;BME280;62818;49.394;8.686;2023-03-15T00:52:21;100186.63;;;4.03;100.00
60099;BME280;62818;49.394;8.686;2023-03-15T00:53:22;100190.50;;;3.80;100.00
60099;BME280;62818;49.394;8.686;2023-03-15T00:54:22;100193.66;;;3.74;100.00
60099;BME280;62818;49.394;8.686;2023-03-15T00:55:23;100195.06;;;3.97;100.00
60099;BME280;62818;49.394;8.686;2023-03-15T00:56:26;100188.41;;;4.12;100.00
60099;BME280;62818;49.394;8.686;2023-03-15T00:57:29;100196.28;;;3.93;100.00
60099;BME280;62818;49.394;8.686;2023-03-15T00:58:32;100194.47;;;3.74;100.00
60099;BME280;62818;49.394;8.686;2023-03-15T00:59:33;100195.31;;;3.75;100.00
60099;BME280;62818;49.394;8.686;2023-03-15T01:00:34;100196.44;;;3.82;100.00
60099;BME280;62818;49.394;8.686;2023-03-15T01:01:34;100198.53;;;4.07;100.00
60099;BME280;62818;49.394;8.686;2023-03-15T01:02:35;100202.09;;;3.87;100.00
60099;BME280;62818;49.394;8.686;2023-03-15T01:03:37;100201.25;;;3.67;100.00
60099;BME280;62818;49.394;8.686;2023-03-15T01:04:37;100198.78;;;3.75;100.00
60099;BME280;62818;49.394;8.686;2023-03-15T01:05:38;100197.78;;;3.67;100.00
60099;BME280;62818;49.394;8.686;2023-03-15T01:06:39;100208.13;;;3.59;100.00
60099;BME280;62818;49.394;8.686;2023-03-15T01:07:41;100200.41;;;3.67;100.00
60099;BME280;62818;49.394;8.686;2023-03-15T01:08:44;100203.19;;;3.75;100.00
60099;BME280;62818;49.394;8.686;2023-03-15T01:09:45;100208.00;;;3.80;100.00
60099;BME280;62818;49.394;8.686;2023-03-15T01:10:46;100213.13;;;3.71;100.00
60099;BME280;62818;49.394;8.686;2023-03-15T01:11:46;100209.09;;;3.77;100.00
60099;BME280;62818;49.394;8.686;2023-03-15T01:12:47;100212.84;;;3.84;100.00
60099;BME280;62818;49.394;8.686;2023-03-15T01:13:47;100217.38;;;3.63;100.00
60099;BME280;62818;49.394;8.686;2023-03-15T01:14:48;100211.38;;;3.42;100.00
60099;BME280;62818;49.394;8.686;2023-03-15T01:15:48;100214.41;;;3.37;100.00
60099;BME280;62818;49.394;8.686;2023-03-15T01:16:49;100213.16;;;3.32;100.00
60099;BME280;62818;49.394;8.686;2023-03-15T01:17:50;100205.88;;;3.45;100.00
60099;BME280;62818;49.394;8.686;2023-03-15T01:18:51;100216.81;;;3.50;100.00
60099;BME280;62818;49.394;8.686;2023-03-15T01:19:52;100216.16;;;3.67;100.00
60099;BME280;62818;49.394;8.686;2023-03-15T01:20:52;100212.28;;;3.90;100.00
60099;BME280;62818;49.394;8.686;2023-03-15T01:21:53;100214.59;;;3.55;100.00
60099;BME280;62818;49.394;8.686;2023-03-15T01:22:54;100207.59;;;3.65;100.00
60099;BME280;62818;49.394;8.686;2023-03-15T01:23:54;100205.41;;;3.70;100.00
60099;BME280;62818;49.394;8.686;2023-03-15T01:24:55;100212.88;;;3.94;100.00
60099;BME280;62818;49.394;8.686;2023-03-15T01:25:59;100215.31;;;3.66;100.00
60099;BME280;62818;49.394;8.686;2023-03-15T01:27:00;100209.53;;;3.82;100.00
60099;BME280;62818;49.394;8.686;2023-03-15T01:28:00;100208.16;;;3.78;100.00
60099;BME280;62818;49.394;8.686;2023-03-15T01:29:01;100209.09;;;3.58;100.00
60099;BME280;62818;49.394;8.686;2023-03-15T01:30:02;100212.59;;;3.87;100.00
60099;BME280;62818;49.394;8.686;2023-03-15T01:31:03;100213.41;;;3.88;100.00
60099;BME280;62818;49.394;8.686;2023-03-15T01:32:04;100221.53;;;3.75;100.00
60099;BME280;62818;49.394;8.686;2023-03-15T01:33:05;100210.63;;;3.70;100.00
60099;BME280;62818;49.394;8.686;2023-03-15T01:34:06;100217.81;;;3.87;100.00
60099;BME280;62818;49.394;8.686;2023-03-15T01:35:08;100220.00;;;3.63;100.00
60099;BME280;62818;49.394;8.686;2023-03-15T01:36:10;100222.97;;;3.39;100.00
60099;BME280;62818;49.394;8.686;2023-03-15T01:37:11;100223.88;;;3.59;100.00
60099;BME280;62818;49.394;8.686;2023-03-15T01:38:13;100219.44;;;3.69;100.00
60099;BME280;62818;49.394;8.686;2023-03-15T01:39:14;100229.78;;;3.70;100.00
60099;BME280;62818;49.394;8.686;2023-03-15T01:40:14;100228.78;;;3.43;100.00
60099;BME280;62818;49.394;8.686;2023-03-15T01:41:16;100227.31;;;3.20;100.00
60099;BME280;62818;49.394;8.686;2023-03-15T01:42:18;100222.34;;;3.17;100.00
60099;BME280;62818;49.394;8.686;2023-03-15T01:43:21;100231.78;;;3.38;100.00
60099;BME280;62818;49.394;8.686;2023-03-15T01:44:26;100231.06;;;3.27;100.00
60099;BME280;62818;49.394;8.686;2023-03-15T01:47:00;100228.91;;;3.02;100.00
60099;BME280;62818;49.394;8.686;2023-03-15T01:48:01;100233.63;;;3.08;100.00
60099;BME280;62818;49.394;8.686;2023-03-15T01:49:28;100227.66;;;3.36;100.00
60099;BME280;62818;49.394;8.686;2023-03-15T01:50:31;100231.50;;;3.32;100.00
60099;BME280;62818;49.394;8.686;2023-03-15T01:51:36;100227.25;;;3.00;100.00
60099;BME280;62818;49.394;8.686;2023-03-15T01:52:42;100233.56;;;2.98;100.00
60099;BME280;62818;49.394;8.686;2023-03-15T01:53:45;100237.97;;;2.97;100.00
60099;BME280;62818;49.394;8.686;2023-03-15T01:54:59;100237.09;;;3.18;100.00
60099;BME280;62818;49.394;8.686;2023-03-15T01:56:03;100236.66;;;2.82;100.00
60099;BME280;62818;49.394;8.686;2023-03-15T01:58:12;100233.16;;;2.72;100.00
60099;BME280;62818;49.394;8.686;2023-03-15T01:59:17;100232.69;;;2.88;100.00
60099;BME280;62818;49.394;8.686;2023-03-15T02:00:23;100233.94;;;2.93;100.00
60099;BME280;62818;49.394;8.686;2023-03-15T02:01:24;100236.69;;;3.13;100.00
60099;BME280;62818;49.394;8.686;2023-03-15T02:02:25;100239.78;;;3.37;100.00
60099;BME280;62818;49.394;8.686;2023-03-15T02:03:29;100231.75;;;3.29;100.00
60099;BME280;62818;49.394;8.686;2023-03-15T02:04:41;100241.94;;;2.71;100.00
60099;BME280;62818;49.394;8.686;2023-03-15T02:05:49;100232.25;;;2.62;100.00
60099;BME280;62818;49.394;8.686;2023-03-15T02:06:58;100240.66;;;2.86;100.00
60099;BME280;62818;49.394;8.686;2023-03-15T02:08:03;100239.06;;;3.25;100.00
60099;BME280;62818;49.394;8.686;2023-03-15T02:09:08;100244.16;;;2.66;100.00
60099;BME280;62818;49.394;8.686;2023-03-15T02:10:17;100238.69;;;2.79;100.00
60099;BME280;62818;49.394;8.686;2023-03-15T02:11:25;100243.09;;;2.78;100.00
60099;BME280;62818;49.394;8.686;2023-03-15T02:12:29;100237.25;;;2.65;100.00
60099;BME280;62818;49.394;8.686;2023-03-15T02:13:32;100239.69;;;2.57;100.00
60099;BME280;62818;49.394;8.686;2023-03-15T02:14:35;100241.78;;;2.63;100.00
60099;BME280;62818;49.394;8.686;2023-03-15T02:15:36;100250.31;;;2.45;100.00
60099;BME280;62818;49.394;8.686;2023-03-15T02:16:37;100252.25;;;2.63;100.00
60099;BME280;62818;49.394;8.686;2023-03-15T02:17:43;100249.25;;;2.88;100.00
60099;BME280;62818;49.394;8.686;2023-03-15T02:18:45;100248.25;;;3.20;100.00
60099;BME280;62818;49.394;8.686;2023-03-15T02:20:03;100247.63;;;2.76;100.00
60099;BME280;62818;49.394;8.686;2023-03-15T02:21:32;100246.00;;;3.06;100.00
60099;BME280;62818;49.394;8.686;2023-03-15T02:22:54;100248.53;;;2.66;100.00
60099;BME280;62818;49.394;8.686;2023-03-15T02:24:08;100246.94;;;2.33;100.00
60099;BME280;62818;49.394;8.686;2023-03-15T02:26:54;100251.72;;;2.28;100.00
60099;BME280;62818;49.394;8.686;2023-03-15T02:27:57;100259.09;;;2.75;100.00
60099;BME280;62818;49.394;8.686;2023-03-15T02:28:58;100259.13;;;2.85;100.00
60099;BME280;62818;49.394;8.686;2023-03-15T02:30:00;100260.59;;;2.57;100.00
60099;BME280;62818;49.394;8.686;2023-03-15T02:31:04;100271.13;;;2.67;100.00
60099;BME280;62818;49.394;8.686;2023-03-15T02:32:05;100261.88;;;2.83;100.00
60099;BME280;62818;49.394;8.686;2023-03-15T02:33:27;100266.53;;;2.59;100.00
60099;BME280;62818;49.394;8.686;2023-03-15T02:34:31;100266.53;;;2.39;100.00
60099;BME280;62818;49.394;8.686;2023-03-15T02:35:32;100265.72;;;2.27;100.00
60099;BME280;62818;49.394;8.686;2023-03-15T02:36:34;100279.28;;;2.73;100.00
60099;BME280;62818;49.394;8.686;2023-03-15T02:37:35;100277.19;;;2.67;100.00
60099;BME280;62818;49.394;8.686;2023-03-15T02:38:36;100270.84;;;2.29;100.00
60099;BME280;62818;49.394;8.686;2023-03-15T02:39:36;100273.88;;;2.13;100.00
60099;BME280;62818;49.394;8.686;2023-03-15T02:40:37;100267.28;;;1.98;100.00
60099;BME280;62818;49.394;8.686;2023-03-15T02:41:40;100269.66;;;1.90;100.00
60099;BME280;62818;49.394;8.686;2023-03-15T02:42:45;100276.16;;;2.59;100.00
60099;BME280;62818;49.394;8.686;2023-03-15T02:43:48;100279.44;;;2.72;100.00
60099;BME280;62818;49.394;8.686;2023-03-15T02:44:54;100276.47;;;2.45;100.00
60099;BME280;62818;49.394;8.686;2023-03-15T02:45:56;100278.19;;;2.03;100.00
60099;BME280;62818;49.394;8.686;2023-03-15T02:47:09;100283.38;;;2.14;100.00
60099;BME280;62818;49.394;8.686;2023-03-15T02:48:16;100279.66;;;2.28;100.00
60099;BME280;62818;49.394;8.686;2023-03-15T02:49:17;100288.78;;;2.33;100.00
60099;BME280;62818;49.394;8.686;2023-03-15T02:50:22;100294.03;;;2.74;100.00
60099;BME280;62818;49.394;8.686;2023-03-15T02:51:25;100295.00;;;2.94;100.00
60099;BME280;62818;49.394;8.686;2023-03-15T02:52:27;100293.09;;;2.75;100.00
60099;BME280;62818;49.394;8.686;2023-03-15T02:53:29;100292.91;;;2.47;100.00
60099;BME280;62818;49.394;8.686;2023-03-15T02:54:30;100291.50;;;2.32;100.00
60099;BME280;62818;49.394;8.686;2023-03-15T02:55:33;100308.06;;;2.73;100.00
60099;BME280;62818;49.394;8.686;2023-03-15T02:56:34;100306.44;;;2.93;100.00
60099;BME280;62818;49.394;8.686;2023-03-15T02:57:35;100312.63;;;2.92;100.00
60099;BME280;62818;49.394;8.686;2023-03-15T02:58:35;100313.00;;;2.87;100.00
60099;BME280;62818;49.394;8.686;2023-03-15T02:59:36;100307.28;;;2.41;100.00
60099;BME280;62818;49.394;8.686;2023-03-15T03:00:37;100306.16;;;2.23;100.00
60099;BME280;62818;49.394;8.686;2023-03-15T03:01:39;100315.50;;;2.37;100.00
60099;BME280;62818;49.394;8.686;2023-03-15T03:02:44;100310.03;;;2.40;100.00
60099;BME280;62818;49.394;8.686;2023-03-15T03:03:46;100324.19;;;2.37;100.00
60099;BME280;62818;49.394;8.686;2023-03-15T03:04:47;100321.50;;;2.59;100.00
60099;BME280;62818;49.394;8.686;2023-03-15T03:05:47;100320.31;;;2.52;100.00
60099;BME280;62818;49.394;8.686;2023-03-15T03:06:48;100315.84;;;2.43;100.00
60099;BME280;62818;49.394;8.686;2023-03-15T03:07:49;100319.56;;;2.30;100.00
60099;BME280;62818;49.394;8.686;2023-03-15T03:08:50;100317.78;;;2.30;100.00
60099;BME280;62818;49.394;8.686;2023-03-15T03:09:50;100325.22;;;2.77;100.00
60099;BME280;62818;49.394;8.686;2023-03-15T03:10:51;100322.94;;;2.52;100.00
60099;BME280;62818;49.394;8.686;2023-03-15T03:11:51;100323.66;;;2.54;100.00
60099;BME280;62818;49.394;8.686;2023-03-15T03:12:52;100326.53;;;2.40;100.00
60099;BME280;62818;49.394;8.686;2023-03-15T03:13:52;100323.41;;;2.57;100.00
60099;BME280;62818;49.394;8.686;2023-03-15T03:14:53;100334.72;;;2.58;100.00
60099;BME280;62818;49.394;8.686;2023-03-15T03:15:55;100335.53;;;2.27;100.00
60099;BME280;62818;49.394;8.686;2023-03-15T03:16:58;100330.03;;;2.30;100.00
60099;BME280;62818;49.394;8.686;2023-03-15T03:18:00;100335.25;;;2.30;100.00
60099;BME280;62818;49.394;8.686;2023-03-15T03:19:01;100341.88;;;2.45;100.00
60099;BME280;62818;49.394;8.686;2023-03-15T03:20:06;100342.88;;;2.64;100.00
60099;BME280;62818;49.394;8.686;2023-03-15T03:21:08;100333.44;;;2.41;100.00
60099;BME280;62818;49.394;8.686;2023-03-15T03:22:09;100330.94;;;2.71;100.00
60099;BME280;62818;49.394;8.686;2023-03-15T03:23:12;100338.16;;;2.47;100.00
60099;BME280;62818;49.394;8.686;2023-03-15T03:24:13;100339.66;;;2.61;100.00
60099;BME280;62818;49.394;8.686;2023-03-15T03:25:15;100347.66;;;2.59;100.00
60099;BME280;62818;49.394;8.686;2023-03-15T03:26:17;100343.31;;;2.49;100.00
60099;BME280;62818;49.394;8.686;2023-03-15T03:27:18;100345.97;;;2.38;100.00
60099;BME280;62818;49.394;8.686;2023-03-15T03:28:23;100350.16;;;2.29;100.00
60099;BME280;62818;49.394;8.686;2023-03-15T03:29:25;100351.97;;;2.49;100.00
60099;BME280;62818;49.394;8.686;2023-03-15T03:30:26;100358.81;;;2.61;100.00
60099;BME280;62818;49.394;8.686;2023-03-15T03:31:27;100355.22;;;2.62;100.00
60099;BME280;62818;49.394;8.686;2023-03-15T03:32:28;100363.63;;;2.45;100.00
60099;BME280;62818;49.394;8.686;2023-03-15T03:33:28;100356.06;;;2.63;100.00
60099;BME280;62818;49.394;8.686;2023-03-15T03:34:29;100358.97;;;2.60;100.00
60099;BME280;62818;49.394;8.686;2023-03-15T03:35:30;100361.00;;;2.77;100.00
60099;BME280;62818;49.394;8.686;2023-03-15T03:36:31;100363.09;;;2.62;100.00
60099;BME280;62818;49.394;8.686;2023-03-15T03:37:33;100357.47;;;2.46;100.00
60099;BME280;62818;49.394;8.686;2023-03-15T03:38:34;100364.59;;;2.44;100.00
60099;BME280;62818;49.394;8.686;2023-03-15T03:39:35;100362.28;;;2.82;100.00
60099;BME280;62818;49.394;8.686;2023-03-15T03:40:36;100368.59;;;2.59;100.00
60099;BME280;62818;49.394;8.686;2023-03-15T03:41:37;100371.06;;;2.61;100.00
60099;BME280;62818;49.394;8.686;2023-03-15T03:42:38;100367.56;;;2.71;100.00
60099;BME280;62818;49.394;8.686;2023-03-15T03:43:39;100366.81;;;2.60;100.00
60099;BME280;62818;49.394;8.686;2023-03-15T03:44:40;100369.03;;;2.33;100.00
60099;BME280;62818;49.394;8.686;2023-03-15T03:45:40;100368.00;;;2.24;100.00
60099;BME280;62818;49.394;8.686;2023-03-15T03:46:41;100365.88;;;2.50;100.00
60099;BME280;62818;49.394;8.686;2023-03-15T03:47:42;100372.66;;;2.84;100.00
60099;BME280;62818;49.394;8.686;2023-03-15T03:48:42;100366.16;;;2.67;100.00
60099;BME280;62818;49.394;8.686;2023-03-15T03:49:43;100369.25;;;2.72;100.00
60099;BME280;62818;49.394;8.686;2023-03-15T03:50:43;100370.94;;;2.62;100.00
60099;BME280;62818;49.394;8.686;2023-03-15T03:51:44;100368.41;;;2.40;100.00
60099;BME280;62818;49.394;8.686;2023-03-15T03:52:44;100364.06;;;2.18;100.00
60099;BME280;62818;49.394;8.686;2023-03-15T03:53:45;100367.72;;;2.27;100.00
60099;BME280;62818;49.394;8.686;2023-03-15T03:54:46;100375.53;;;2.38;100.00
60099;BME280;62818;49.394;8.686;2023-03-15T03:55:46;100374.56;;;2.50;100.00
60099;BME280;62818;49.394;8.686;2023-03-15T03:56:47;100380.28;;;2.76;100.00
60099;BME280;62818;49.394;8.686;2023-03-15T03:57:48;100381.44;;;2.51;100.00
60099;BME280;62818;49.394;8.686;2023-03-15T03:58:48;100377.38;;;2.27;100.00
60099;BME280;62818;49.394;8.686;2023-03-15T03:59:49;100380.75;;;2.06;100.00
60099;BME280;62818;49.394;8.686;2023-03-15T04:00:51;100371.34;;;2.15;100.00
60099;BME280;62818;49.394;8.686;2023-03-15T04:01:54;100377.50;;;2.14;100.00
60099;BME280;62818;49.394;8.686;2023-03-15T04:02:55;100380.44;;;2.32;100.00
60099;BME280;62818;49.394;8.686;2023-03-15T04:03:55;100381.28;;;2.21;100.00
60099;BME280;62818;49.394;8.686;2023-03-15T04:04:56;100381.66;;;2.16;100.00
60099;BME280;62818;49.394;8.686;2023-03-15T04:05:57;100378.06;;;2.40;100.00
60099;BME280;62818;49.394;8.686;2023-03-15T04:06:59;100381.88;;;2.36;100.00
60099;BME280;62818;49.394;8.686;2023-03-15T04:07:59;100387.00;;;2.26;100.00
60099;BME280;62818;49.394;8.686;2023-03-15T04:09:00;100391.63;;;2.22;100.00
60099;BME280;62818;49.394;8.686;2023-03-15T04:10:03;100388.94;;;2.02;100.00
60099;BME280;62818;49.394;8.686;2023-03-15T04:11:04;100390.59;;;2.03;100.00
60099;BME280;62818;49.394;8.686;2023-03-15T04:12:05;100385.81;;;2.19;100.00
60099;BME280;62818;49.394;8.686;2023-03-15T04:13:05;100399.31;;;2.46;100.00
60099;BME280;62818;49.394;8.686;2023-03-15T04:14:06;100390.81;;;2.22;100.00
60099;BME280;62818;49.394;8.686;2023-03-15T04:15:06;100394.63;;;2.18;100.00
60099;BME280;62818;49.394;8.686;2023-03-15T04:16:07;100390.69;;;2.23;100.00
60099;BME280;62818;49.394;8.686;2023-03-15T04:17:07;100394.31;;;2.43;100.00
60099;BME280;62818;49.394;8.686;2023-03-15T04:18:08;100388.53;;;2.29;100.00
60099;BME280;62818;49.394;8.686;2023-03-15T04:19:08;100392.81;;;2.18;100.00
60099;BME280;62818;49.394;8.686;2023-03-15T04:20:09;100396.22;;;2.41;100.00
60099;BME280;62818;49.394;8.686;2023-03-15T04:21:12;100396.47;;;2.27;100.00
60099;BME280;62818;49.394;8.686;2023-03-15T04:22:13;100393.41;;;2.33;100.00
60099;BME280;62818;49.394;8.686;2023-03-15T04:23:14;100405.47;;;2.02;100.00
60099;BME280;62818;49.394;8.686;2023-03-15T04:24:17;100396.19;;;1.87;100.00
60099;BME280;62818;49.394;8.686;2023-03-15T04:25:18;100402.38;;;1.97;100.00
60099;BME280;62818;49.394;8.686;2023-03-15T04:26:19;100396.91;;;2.00;100.00
60099;BME280;62818;49.394;8.686;2023-03-15T04:27:20;100396.56;;;1.94;100.00
60099;BME280;62818;49.394;8.686;2023-03-15T04:28:20;100387.22;;;2.23;100.00
60099;BME280;62818;49.394;8.686;2023-03-15T04:29:21;100397.72;;;1.79;100.00
60099;BME280;62818;49.394;8.686;2023-03-15T04:30:25;100396.28;;;2.08;100.00
60099;BME280;62818;49.394;8.686;2023-03-15T04:31:27;100394.53;;;2.08;100.00
60099;BME280;62818;49.394;8.686;2023-03-15T04:32:27;100387.56;;;2.30;100.00
60099;BME280;62818;49.394;8.686;2023-03-15T04:33:28;100392.03;;;2.07;100.00
60099;BME280;62818;49.394;8.686;2023-03-15T04:34:29;100394.28;;;2.11;100.00
60099;BME280;62818;49.394;8.686;2023-03-15T04:35:32;100390.81;;;2.22;100.00
60099;BME280;62818;49.394;8.686;2023-03-15T04:36:34;100392.00;;;2.29;100.00
60099;BME280;62818;49.394;8.686;2023-03-15T04:37:35;100387.97;;;2.14;100.00
60099;BME280;62818;49.394;8.686;2023-03-15T04:38:35;100394.19;;;1.91;100.00
60099;BME280;62818;49.394;8.686;2023-03-15T04:39:36;100389.63;;;2.15;100.00
60099;BME280;62818;49.394;8.686;2023-03-15T04:40:38;100395.81;;;1.92;100.00
60099;BME280;62818;49.394;8.686;2023-03-15T04:41:38;100400.47;;;1.99;100.00
60099;BME280;62818;49.394;8.686;2023-03-15T04:42:39;100395.00;;;2.02;100.00
60099;BME280;62818;49.394;8.686;2023-03-15T04:43:39;100399.13;;;2.05;100.00
60099;BME280;62818;49.394;8.686;2023-03-15T04:44:40;100404.16;;;1.97;100.00
60099;BME280;62818;49.394;8.686;2023-03-15T04:45:41;100396.66;;;1.81;100.00
60099;BME280;62818;49.394;8.686;2023-03-15T04:46:42;100405.81;;;1.54;100.00
60099;BME280;62818;49.394;8.686;2023-03-15T04:47:43;100402.38;;;1.64;100.00
60099;BME280;62818;49.394;8.686;2023-03-15T04:48:43;100395.25;;;1.77;100.00
60099;BME280;62818;49.394;8.686;2023-03-15T04:49:44;100402.50;;;2.07;100.00
60099;BME280;62818;49.394;8.686;2023-03-15T04:50:44;100401.91;;;1.70;100.00
60099;BME280;62818;49.394;8.686;2023-03-15T04:51:44;100407.03;;;1.72;100.00
60099;BME280;62818;49.394;8.686;2023-03-15T04:52:45;100410.44;;;1.72;100.00
60099;BME280;62818;49.394;8.686;2023-03-15T04:53:46;100402.72;;;1.82;100.00
60099;BME280;62818;49.394;8.686;2023-03-15T04:54:46;100414.13;;;1.92;100.00
60099;BME280;62818;49.394;8.686;2023-03-15T04:55:47;100418.28;;;1.94;100.00
60099;BME280;62818;49.394;8.686;2023-03-15T04:56:47;100416.16;;;1.88;100.00
60099;BME280;62818;49.394;8.686;2023-03-15T04:57:48;100412.47;;;2.02;100.00
60099;BME280;62818;49.394;8.686;2023-03-15T04:58:49;100417.94;;;1.88;100.00
60099;BME280;62818;49.394;8.686;2023-03-15T04:59:49;100418.41;;;1.82;100.00
60099;BME280;62818;49.394;8.686;2023-03-15T05:00:51;100423.00;;;2.22;100.00
60099;BME280;62818;49.394;8.686;2023-03-15T05:01:53;100420.97;;;2.37;100.00
60099;BME280;62818;49.394;8.686;2023-03-15T05:02:53;100427.53;;;2.20;100.00
60099;BME280;62818;49.394;8.686;2023-03-15T05:03:54;100428.38;;;2.10;100.00
60099;BME280;62818;49.394;8.686;2023-03-15T05:04:54;100423.75;;;2.02;100.00
60099;BME280;62818;49.394;8.686;2023-03-15T05:05:55;100423.75;;;2.13;100.00
60099;BME280;62818;49.394;8.686;2023-03-15T05:06:55;100424.13;;;2.09;100.00
60099;BME280;62818;49.394;8.686;2023-03-15T05:07:55;100421.03;;;1.93;100.00
60099;BME280;62818;49.394;8.686;2023-03-15T05:08:56;100420.81;;;1.96;100.00
60099;BME280;62818;49.394;8.686;2023-03-15T05:09:56;100414.88;;;1.83;100.00
60099;BME280;62818;49.394;8.686;2023-03-15T05:10:57;100415.22;;;2.00;100.00
60099;BME280;62818;49.394;8.686;2023-03-15T05:11:57;100421.03;;;2.04;100.00
60099;BME280;62818;49.394;8.686;2023-03-15T05:12:58;100416.28;;;2.09;100.00
60099;BME280;62818;49.394;8.686;2023-03-15T05:13:58;100419.59;;;2.00;100.00
60099;BME280;62818;49.394;8.686;2023-03-15T05:14:59;100418.97;;;2.07;100.00
60099;BME280;62818;49.394;8.686;2023-03-15T05:15:59;100415.63;;;2.28;100.00
60099;BME280;62818;49.394;8.686;2023-03-15T05:17:00;100421.59;;;1.96;100.00
60099;BME280;62818;49.394;8.686;2023-03-15T05:18:01;100421.25;;;1.90;100.00
60099;BME280;62818;49.394;8.686;2023-03-15T05:19:03;100415.31;;;1.88;100.00
60099;BME280;62818;49.394;8.686;2023-03-15T05:20:04;100419.59;;;1.89;100.00
60099;BME280;62818;49.394;8.686;2023-03-15T05:21:12;100413.19;;;1.93;100.00
60099;BME280;62818;49.394;8.686;2023-03-15T05:22:13;100418.53;;;1.91;100.00
60099;BME280;62818;49.394;8.686;2023-03-15T05:23:13;100424.47;;;1.82;100.00
60099;BME280;62818;49.394;8.686;2023-03-15T05:24:14;100421.84;;;2.04;100.00
60099;BME280;62818;49.394;8.686;2023-03-15T05:25:14;100422.69;;;1.94;100.00
60099;BME280;62818;49.394;8.686;2023-03-15T05:26:15;100430.28;;;1.86;100.00
60099;BME280;62818;49.394;8.686;2023-03-15T05:27:15;100433.88;;;1.85;100.00
60099;BME280;62818;49.394;8.686;2023-03-15T05:28:16;100427.44;;;1.89;100.00